Time;durP1;ratioP1;P1;durP2;ratioP2;P2;SDS_P1;SDS_P2;PMS_P1;PMS_P2;Temp;Humidity;BMP_temperature;BMP_pressure;BME280_temperature;BME280_humidity;BME280_pressure;Samples;Min_cycle;Max_cycle;Signal;HPM_P1;HPM_P2
2023/06/05 00:01:00;;;;;;;5.03;3.10;;;;;;;;;;5075613;28;20565;-64
2023/06/05 00:03:26;;;;;;;5.37;2.77;;;;;;;;;;5093766;28;20219;-63
2023/06/05 00:05:52;;;;;;;3.73;2.87;;;;;;;;;;5093575;28;20779;-64
2023/06/05 00:08:18;;;;;;;4.43;2.60;;;;;;;;;;5093615;28;20185;-64
2023/06/05 00:10:45;;;;;;;3.33;2.70;;;;;;;;;;5075467;28;20192;-64
2023/06/05 00:13:11;;;;;;;4.90;2.73;;;;;;;;;;5093849;28;20179;-64
2023/06/05 00:15:37;;;;;;;5.13;2.87;;;;;;;;;;5093685;28;20275;-63
2023/06/05 00:18:03;;;;;;;4.07;2.90;;;;;;;;;;5093426;28;20185;-64
2023/06/05 00:20:30;;;;;;;3.53;2.73;;;;;;;;;;5093513;28;20230;-64
2023/06/05 00:22:56;;;;;;;9.60;2.83;;;;;;;;;;5075383;28;20179;-64
2023/06/05 00:25:22;;;;;;;3.77;2.53;;;;;;;;;;5093227;28;20208;-64
2023/06/05 00:27:48;;;;;;;5.40;2.87;;;;;;;;;;5093475;28;20173;-63
2023/06/05 00:30:14;;;;;;;5.53;3.20;;;;;;;;;;5093626;28;20217;-63
2023/06/05 00:32:40;;;;;;;6.10;2.87;;;;;;;;;;5093292;28;20263;-64
2023/06/05 00:35:07;;;;;;;4.23;2.87;;;;;;;;;;5093247;28;20694;-63
2023/06/05 00:37:33;;;;;;;5.90;2.93;;;;;;;;;;5093307;28;20169;-63
2023/06/05 00:39:59;;;;;;;4.90;3.13;;;;;;;;;;5093347;28;20201;-63
2023/06/05 00:42:28;;;;;;;6.43;3.53;;;;;;;;;;5093371;28;20177;-64
2023/06/05 00:44:54;;;;;;;3.47;2.73;;;;;;;;;;5093184;28;20642;-63
2023/06/05 00:47:21;;;;;;;5.03;3.50;;;;;;;;;;5097395;28;20184;-64
2023/06/05 00:49:47;;;;;;;4.70;3.10;;;;;;;;;;5079522;28;20185;-63
2023/06/05 00:52:13;;;;;;;3.60;2.87;;;;;;;;;;5079161;28;20184;-66
2023/06/05 00:54:40;;;;;;;5.90;3.10;;;;;;;;;;5097309;28;20177;-64
2023/06/05 00:57:07;;;;;;;5.80;3.03;;;;;;;;;;5097582;28;20314;-64
2023/06/05 00:59:34;;;;;;;4.53;2.93;;;;;;;;;;5078929;28;20580;-63
2023/06/05 01:02:02;;;;;;;6.63;3.10;;;;;;;;;;5097287;28;20264;-65
2023/06/05 01:04:28;;;;;;;4.77;2.80;;;;;;;;;;5097159;28;20177;-64
2023/06/05 01:06:57;;;;;;;10.67;3.20;;;;;;;;;;5096941;28;20193;-64
2023/06/05 01:09:23;;;;;;;4.87;3.27;;;;;;;;;;5096870;28;20177;-64
2023/06/05 01:11:55;;;;;;;3.60;2.90;;;;;;;;;;5097242;28;20261;-64
2023/06/05 01:14:22;;;;;;;5.07;3.03;;;;;;;;;;5078619;28;20184;-64
2023/06/05 01:16:50;;;;;;;3.60;2.83;;;;;;;;;;5096717;28;20201;-64
2023/06/05 01:19:17;;;;;;;4.30;3.07;;;;;;;;;;5096679;28;20739;-64
2023/06/05 01:21:43;;;;;;;5.50;3.00;;;;;;;;;;5078613;28;20197;-64
2023/06/05 01:24:13;;;;;;;5.00;2.97;;;;;;;;;;5096795;28;20528;-64
2023/06/05 01:27:02;;;;;;;6.10;3.70;;;;;;;;;;5096651;28;20227;-64
2023/06/05 01:29:33;;;;;;;7.27;3.43;;;;;;;;;;5076086;28;20260;-64
2023/06/05 01:32:03;;;;;;;7.93;4.17;;;;;;;;;;5078954;28;20176;-64
2023/06/05 01:34:29;;;;;;;5.80;3.70;;;;;;;;;;5096669;28;20234;-64
2023/06/05 01:36:55;;;;;;;6.67;2.87;;;;;;;;;;5078128;28;20638;-64
2023/06/05 01:39:23;;;;;;;8.30;3.50;;;;;;;;;;5078171;28;20686;-64
2023/06/05 01:41:50;;;;;;;5.60;3.30;;;;;;;;;;5096684;28;20165;-64
2023/06/05 01:44:17;;;;;;;8.00;3.50;;;;;;;;;;5096316;28;20207;-64
2023/06/05 01:46:44;;;;;;;7.23;3.60;;;;;;;;;;5096079;28;20659;-64
2023/06/05 01:49:10;;;;;;;6.93;3.70;;;;;;;;;;5096182;28;20173;-65
2023/06/05 01:51:36;;;;;;;6.73;3.90;;;;;;;;;;5096254;28;20189;-64
2023/06/05 01:54:02;;;;;;;5.60;4.27;;;;;;;;;;5096426;28;20181;-63
2023/06/05 01:56:30;;;;;;;7.07;3.60;;;;;;;;;;5095627;28;20280;-64
2023/06/05 01:58:56;;;;;;;6.20;3.47;;;;;;;;;;5096164;28;20665;-64
2023/06/05 02:01:22;;;;;;;6.47;3.87;;;;;;;;;;5095899;28;20170;-64
2023/06/05 02:03:49;;;;;;;5.10;4.00;;;;;;;;;;5078014;28;20555;-64
2023/06/05 02:06:16;;;;;;;8.67;3.90;;;;;;;;;;5095749;28;20566;-64
2023/06/05 02:08:42;;;;;;;7.13;3.80;;;;;;;;;;5095765;28;20180;-64
2023/06/05 02:11:11;;;;;;;6.90;3.97;;;;;;;;;;5097042;28;20188;-65
2023/06/05 02:13:40;;;;;;;5.23;3.40;;;;;;;;;;5095798;28;20184;-65
2023/06/05 02:16:08;;;;;;;7.10;3.93;;;;;;;;;;5077701;28;20621;-65
2023/06/05 02:18:36;;;;;;;7.20;3.60;;;;;;;;;;5095568;28;20310;-64
2023/06/05 02:21:02;;;;;;;6.63;4.10;;;;;;;;;;5095557;28;20256;-64
2023/06/05 02:23:29;;;;;;;7.90;4.30;;;;;;;;;;5095546;28;20208;-65
2023/06/05 02:25:55;;;;;;;5.57;3.77;;;;;;;;;;5095411;28;20201;-65
2023/06/05 02:28:21;;;;;;;4.63;4.13;;;;;;;;;;5095534;28;20177;-64
2023/06/05 02:30:47;;;;;;;6.13;4.50;;;;;;;;;;5077297;28;20643;-67
2023/06/05 02:33:14;;;;;;;5.93;3.67;;;;;;;;;;5095806;28;20641;-65
2023/06/05 02:35:40;;;;;;;4.73;3.90;;;;;;;;;;5095209;28;20701;-65
2023/06/05 02:38:07;;;;;;;4.73;3.83;;;;;;;;;;5077146;28;20177;-65
2023/06/05 02:40:33;;;;;;;4.77;4.00;;;;;;;;;;5077042;28;20638;-66
2023/06/05 02:43:00;;;;;;;4.77;3.93;;;;;;;;;;5095385;28;20169;-65
2023/06/05 02:45:26;;;;;;;7.97;3.87;;;;;;;;;;5076922;28;20244;-65
2023/06/05 02:47:52;;;;;;;5.30;4.10;;;;;;;;;;5095030;28;20172;-65
2023/06/05 02:50:17;;;;;;;4.77;4.27;;;;;;;;;;5095357;28;20247;-65
2023/06/05 02:52:43;;;;;;;7.23;4.53;;;;;;;;;;5076872;28;20181;-65
2023/06/05 02:55:09;;;;;;;6.83;4.57;;;;;;;;;;5095099;28;20197;-66
2023/06/05 02:57:41;;;;;;;5.53;3.90;;;;;;;;;;5095077;28;20177;-65
2023/06/05 03:00:08;;;;;;;6.70;3.93;;;;;;;;;;5094945;28;20193;-65
2023/06/05 03:02:37;;;;;;;6.33;4.77;;;;;;;;;;5094656;28;20541;-65
2023/06/05 03:05:04;;;;;;;6.23;3.90;;;;;;;;;;5094831;28;20539;-65
2023/06/05 03:07:30;;;;;;;8.57;3.90;;;;;;;;;;5094538;28;20200;-65
2023/06/05 03:09:56;;;;;;;7.90;4.27;;;;;;;;;;5093696;28;20173;-65
2023/06/05 03:12:22;;;;;;;4.43;3.97;;;;;;;;;;5094495;28;20187;-65
2023/06/05 03:14:48;;;;;;;5.90;3.90;;;;;;;;;;5076297;28;20275;-65
2023/06/05 03:17:14;;;;;;;5.03;4.03;;;;;;;;;;5094330;28;20181;-67
2023/06/05 03:19:40;;;;;;;9.23;4.67;;;;;;;;;;5094405;28;20209;-68
2023/06/05 03:22:06;;;;;;;6.33;4.03;;;;;;;;;;5094680;28;20189;-67
2023/06/05 03:24:32;;;;;;;5.87;4.00;;;;;;;;;;5076088;28;20176;-66
2023/06/05 03:26:58;;;;;;;4.40;4.00;;;;;;;;;;5094735;28;20208;-66
2023/06/05 03:29:24;;;;;;;5.90;4.60;;;;;;;;;;5094414;28;20666;-66
2023/06/05 03:31:50;;;;;;;7.90;4.60;;;;;;;;;;5076084;28;20216;-66
2023/06/05 03:34:16;;;;;;;7.70;4.33;;;;;;;;;;5094081;28;20204;-66
2023/06/05 03:36:42;;;;;;;8.47;4.60;;;;;;;;;;5094041;28;20204;-66
2023/06/05 03:39:08;;;;;;;7.73;4.93;;;;;;;;;;5094294;28;20240;-68
2023/06/05 03:41:35;;;;;;;9.80;4.70;;;;;;;;;;5076296;28;20179;-69
2023/06/05 03:44:03;;;;;;;8.83;5.03;;;;;;;;;;5076085;28;20177;-68
2023/06/05 03:46:29;;;;;;;8.10;4.80;;;;;;;;;;5075860;28;20204;-67
2023/06/05 03:48:59;;;;;;;7.70;4.40;;;;;;;;;;5093936;28;20181;-65
2023/06/05 03:51:29;;;;;;;6.73;4.63;;;;;;;;;;5094777;28;20564;-68
2023/06/05 03:53:56;;;;;;;7.10;4.93;;;;;;;;;;5094178;28;20528;-65
2023/06/05 03:56:23;;;;;;;8.57;4.70;;;;;;;;;;5093704;28;20189;-66
2023/06/05 03:58:49;;;;;;;9.33;5.00;;;;;;;;;;5075598;28;20295;-67
2023/06/05 04:01:15;;;;;;;7.90;4.90;;;;;;;;;;5093990;28;20173;-67
2023/06/05 04:03:41;;;;;;;8.43;4.90;;;;;;;;;;5075632;28;20562;-65
2023/06/05 04:06:10;;;;;;;8.20;4.73;;;;;;;;;;5093910;28;20227;-65
2023/06/05 04:08:37;;;;;;;10.07;5.33;;;;;;;;;;5094057;28;20265;-65
2023/06/05 04:11:03;;;;;;;8.93;5.17;;;;;;;;;;5094155;28;20663;-65
2023/06/05 04:13:29;;;;;;;7.07;5.37;;;;;;;;;;5093472;28;20175;-67
2023/06/05 04:15:55;;;;;;;6.73;5.30;;;;;;;;;;5093445;28;20279;-65
2023/06/05 04:18:22;;;;;;;7.60;5.50;;;;;;;;;;5075336;28;20296;-67
2023/06/05 04:20:48;;;;;;;8.83;5.73;;;;;;;;;;5075227;28;20181;-66
2023/06/05 04:23:14;;;;;;;9.07;5.30;;;;;;;;;;5093681;28;20222;-67
2023/06/05 04:25:45;;;;;;;7.83;5.50;;;;;;;;;;5075074;28;20218;-66
2023/06/05 04:28:11;;;;;;;9.33;5.80;;;;;;;;;;5093555;28;20188;-67
2023/06/05 04:30:37;;;;;;;8.50;6.00;;;;;;;;;;5093364;28;20251;-66
2023/06/05 04:33:06;;;;;;;9.47;5.77;;;;;;;;;;5093376;28;20302;-66
2023/06/05 04:35:33;;;;;;;7.87;5.73;;;;;;;;;;5093321;28;20208;-66
2023/06/05 04:38:00;;;;;;;8.03;5.80;;;;;;;;;;5093681;28;20578;-67
2023/06/05 04:40:26;;;;;;;11.87;6.07;;;;;;;;;;5093390;28;20193;-66
2023/06/05 04:42:54;;;;;;;10.83;6.33;;;;;;;;;;5075105;28;20217;-66
2023/06/05 04:45:21;;;;;;;9.70;5.80;;;;;;;;;;5075022;28;20197;-64
2023/06/05 04:47:47;;;;;;;6.97;5.50;;;;;;;;;;5093195;28;20173;-65
2023/06/05 04:50:33;;;;;;;7.97;5.33;;;;;;;;;;5075137;28;20246;-64
2023/06/05 04:52:59;;;;;;;12.63;5.37;;;;;;;;;;5093682;28;20688;-65
2023/06/05 04:55:25;;;;;;;7.93;5.27;;;;;;;;;;5075021;28;20226;-65
2023/06/05 04:57:53;;;;;;;7.17;5.03;;;;;;;;;;5093282;28;20703;-64
2023/06/05 05:00:19;;;;;;;5.60;4.77;;;;;;;;;;5092908;28;20610;-65
2023/06/05 05:02:45;;;;;;;5.37;4.87;;;;;;;;;;5075200;28;20188;-64
2023/06/05 05:05:13;;;;;;;6.63;4.90;;;;;;;;;;5092961;28;20693;-64
2023/06/05 05:07:40;;;;;;;7.90;5.20;;;;;;;;;;5093153;28;20173;-64
2023/06/05 05:10:08;;;;;;;9.90;4.77;;;;;;;;;;5074909;28;20223;-64
2023/06/05 05:12:34;;;;;;;10.00;5.27;;;;;;;;;;5093520;28;20208;-66
2023/06/05 05:15:00;;;;;;;6.73;5.60;;;;;;;;;;5093267;28;20545;-65
2023/06/05 05:17:26;;;;;;;6.60;5.40;;;;;;;;;;5093258;28;20177;-65
2023/06/05 05:19:52;;;;;;;5.63;5.10;;;;;;;;;;5093127;28;20215;-66
2023/06/05 05:22:18;;;;;;;7.17;5.80;;;;;;;;;;5093228;28;20201;-65
2023/06/05 05:24:44;;;;;;;6.17;5.53;;;;;;;;;;5074725;28;20227;-64
2023/06/05 05:27:10;;;;;;;9.93;5.60;;;;;;;;;;5093022;28;20173;-65
2023/06/05 05:29:36;;;;;;;8.47;5.27;;;;;;;;;;5092909;28;20180;-65
2023/06/05 05:32:02;;;;;;;8.07;5.83;;;;;;;;;;5093638;28;20259;-65
2023/06/05 05:34:28;;;;;;;9.47;5.93;;;;;;;;;;5096573;28;20184;-65
2023/06/05 05:36:53;;;;;;;8.90;5.60;;;;;;;;;;5096640;28;20196;-64
2023/06/05 05:39:20;;;;;;;7.10;5.80;;;;;;;;;;5097587;28;20201;-64
2023/06/05 05:41:46;;;;;;;10.13;6.13;;;;;;;;;;5096535;28;20173;-65
2023/06/05 05:44:11;;;;;;;8.30;5.50;;;;;;;;;;5096561;28;20184;-65
2023/06/05 05:46:37;;;;;;;7.43;5.00;;;;;;;;;;5096067;28;20193;-65
2023/06/05 05:49:03;;;;;;;7.27;5.40;;;;;;;;;;5096632;28;20173;-65
2023/06/05 05:51:29;;;;;;;8.10;5.77;;;;;;;;;;5096429;28;20181;-65
2023/06/05 05:53:55;;;;;;;9.17;5.80;;;;;;;;;;5096561;28;20648;-67
2023/06/05 05:56:21;;;;;;;7.50;5.03;;;;;;;;;;5077895;28;20232;-65
2023/06/05 05:58:47;;;;;;;7.87;5.30;;;;;;;;;;5096400;28;20209;-65
2023/06/05 06:01:13;;;;;;;13.67;5.83;;;;;;;;;;5096195;28;20173;-65
2023/06/05 06:03:39;;;;;;;6.70;5.30;;;;;;;;;;5078026;28;20181;-64
2023/06/05 06:06:08;;;;;;;9.80;5.30;;;;;;;;;;5096242;28;20720;-65
2023/06/05 06:08:35;;;;;;;9.00;5.33;;;;;;;;;;5096080;28;20177;-65
2023/06/05 06:11:06;;;;;;;7.63;5.93;;;;;;;;;;5096259;28;20591;-65
2023/06/05 06:13:32;;;;;;;10.33;5.73;;;;;;;;;;5096144;28;20164;-65
2023/06/05 06:15:58;;;;;;;6.57;5.73;;;;;;;;;;5095845;28;20224;-65
2023/06/05 06:18:25;;;;;;;6.40;5.70;;;;;;;;;;5095653;28;20642;-65
2023/06/05 06:20:51;;;;;;;15.10;6.00;;;;;;;;;;5096253;28;20230;-65
2023/06/05 06:23:17;;;;;;;9.27;5.37;;;;;;;;;;5077343;28;20185;-65
2023/06/05 06:25:43;;;;;;;11.73;6.40;;;;;;;;;;5095369;28;20284;-65
2023/06/05 06:28:09;;;;;;;9.10;5.10;;;;;;;;;;5095595;28;20197;-65
2023/06/05 06:30:36;;;;;;;10.27;5.43;;;;;;;;;;5077377;28;20196;-65
2023/06/05 06:33:03;;;;;;;10.73;6.00;;;;;;;;;;5077273;28;20173;-65
2023/06/05 06:35:31;;;;;;;12.83;6.13;;;;;;;;;;5095416;28;20651;-65
2023/06/05 06:37:57;;;;;;;7.27;5.90;;;;;;;;;;5077237;28;20169;-65
2023/06/05 06:40:23;;;;;;;9.40;5.83;;;;;;;;;;5095251;28;20673;-65
2023/06/05 06:42:50;;;;;;;7.03;5.83;;;;;;;;;;5095151;28;20204;-65
2023/06/05 06:45:17;;;;;;;7.93;5.80;;;;;;;;;;5095555;28;20197;-65
2023/06/05 06:47:43;;;;;;;9.10;5.77;;;;;;;;;;5077046;28;20173;-65
2023/06/05 06:50:09;;;;;;;9.50;5.80;;;;;;;;;;5095677;28;20178;-65
2023/06/05 06:52:35;;;;;;;8.10;5.50;;;;;;;;;;5094988;28;20654;-65
2023/06/05 06:55:01;;;;;;;9.27;5.43;;;;;;;;;;5094974;28;20193;-65
2023/06/05 06:57:27;;;;;;;8.13;5.63;;;;;;;;;;5094958;28;20528;-65
2023/06/05 06:59:53;;;;;;;7.70;5.37;;;;;;;;;;5094795;28;20204;-65
2023/06/05 07:02:20;;;;;;;11.77;5.77;;;;;;;;;;5094920;28;20173;-65
2023/06/05 07:04:47;;;;;;;7.83;5.63;;;;;;;;;;5094716;28;20618;-65
2023/06/05 07:07:14;;;;;;;9.17;5.50;;;;;;;;;;5094811;28;20214;-65
2023/06/05 07:09:40;;;;;;;7.90;5.53;;;;;;;;;;5076492;28;20635;-65
2023/06/05 07:12:06;;;;;;;9.63;5.93;;;;;;;;;;5094698;28;20246;-65
2023/06/05 07:14:33;;;;;;;8.77;5.63;;;;;;;;;;5094616;28;20181;-65
2023/06/05 07:17:00;;;;;;;7.10;5.23;;;;;;;;;;5094672;28;20643;-65
2023/06/05 07:19:27;;;;;;;11.50;6.50;;;;;;;;;;5094828;28;20204;-65
2023/06/05 07:21:53;;;;;;;7.70;5.10;;;;;;;;;;5094725;28;20169;-65
2023/06/05 07:24:18;;;;;;;7.83;5.30;;;;;;;;;;5094417;28;20230;-65
2023/06/05 07:26:45;;;;;;;11.80;5.67;;;;;;;;;;5094808;28;20262;-65
2023/06/05 07:29:11;;;;;;;6.23;4.93;;;;;;;;;;5094999;28;20208;-65
2023/06/05 07:31:38;;;;;;;8.70;6.47;;;;;;;;;;5094453;28;20260;-65
2023/06/05 07:34:05;;;;;;;9.20;6.10;;;;;;;;;;5094840;28;20592;-65
2023/06/05 07:36:31;;;;;;;9.40;6.03;;;;;;;;;;5094425;28;20604;-65
2023/06/05 07:38:57;;;;;;;8.87;6.40;;;;;;;;;;5094217;28;20208;-65
2023/06/05 07:41:25;;;;;;;11.93;6.17;;;;;;;;;;5094482;28;20284;-65
2023/06/05 07:43:51;;;;;;;14.00;5.87;;;;;;;;;;5094457;28;20184;-65
2023/06/05 07:46:17;;;;;;;10.80;6.90;;;;;;;;;;5094187;28;20227;-65
2023/06/05 07:48:43;;;;;;;9.10;6.90;;;;;;;;;;5094400;28;20177;-65
2023/06/05 07:51:09;;;;;;;13.60;7.00;;;;;;;;;;5094241;28;20191;-65
2023/06/05 07:53:35;;;;;;;9.77;6.80;;;;;;;;;;5093958;28;20600;-65
2023/06/05 07:56:01;;;;;;;13.03;7.30;;;;;;;;;;5093399;28;20615;-65
2023/06/05 07:58:29;;;;;;;12.13;6.90;;;;;;;;;;5094104;28;20278;-65
2023/06/05 08:00:56;;;;;;;15.27;6.60;;;;;;;;;;5093856;28;20568;-65
2023/06/05 08:03:23;;;;;;;10.63;6.90;;;;;;;;;;5093806;28;20169;-65
2023/06/05 08:05:52;;;;;;;16.43;6.70;;;;;;;;;;5094292;28;20189;-65
2023/06/05 08:08:18;;;;;;;12.33;6.30;;;;;;;;;;5093821;28;20173;-65
2023/06/05 08:10:45;;;;;;;10.93;7.17;;;;;;;;;;5093596;28;20173;-65
2023/06/05 08:13:11;;;;;;;15.93;7.87;;;;;;;;;;5093976;28;20180;-65
2023/06/05 08:15:37;;;;;;;13.40;8.37;;;;;;;;;;5093612;28;20245;-65
2023/06/05 08:18:03;;;;;;;23.03;8.83;;;;;;;;;;5094187;28;20238;-65
2023/06/05 08:20:29;;;;;;;17.77;7.90;;;;;;;;;;5075398;28;20642;-66
2023/06/05 08:22:58;;;;;;;15.57;7.73;;;;;;;;;;5093622;28;20197;-65
2023/06/05 08:25:25;;;;;;;13.00;7.27;;;;;;;;;;5093368;28;20204;-65
2023/06/05 08:27:51;;;;;;;12.27;6.97;;;;;;;;;;5093868;28;20244;-65
2023/06/05 08:30:17;;;;;;;10.60;6.60;;;;;;;;;;5075553;28;20271;-64
2023/06/05 08:32:43;;;;;;;15.50;6.33;;;;;;;;;;5075390;28;20185;-65
2023/06/05 08:35:13;;;;;;;13.27;7.23;;;;;;;;;;5093199;28;20630;-65
2023/06/05 08:37:40;;;;;;;16.37;7.17;;;;;;;;;;5093759;28;20649;-65
2023/06/05 08:40:08;;;;;;;13.07;6.37;;;;;;;;;;5093526;28;20229;-65
2023/06/05 08:42:34;;;;;;;11.70;6.73;;;;;;;;;;5093408;28;20256;-65
2023/06/05 08:45:00;;;;;;;14.00;6.70;;;;;;;;;;5075265;28;20638;-65
2023/06/05 08:47:28;;;;;;;21.67;7.20;;;;;;;;;;5093809;28;20647;-65
2023/06/05 08:49:55;;;;;;;12.43;6.13;;;;;;;;;;5093587;28;20232;-65
2023/06/05 08:52:23;;;;;;;13.57;6.60;;;;;;;;;;5093471;28;20269;-66
2023/06/05 08:54:49;;;;;;;15.70;6.40;;;;;;;;;;5093224;28;20639;-65
2023/06/05 08:57:16;;;;;;;16.60;5.87;;;;;;;;;;5075229;28;20185;-65
2023/06/05 08:59:42;;;;;;;12.83;5.83;;;;;;;;;;5093006;28;20201;-66
2023/06/05 09:02:09;;;;;;;15.40;6.53;;;;;;;;;;5093222;28;20226;-65
2023/06/05 09:04:35;;;;;;;14.03;6.63;;;;;;;;;;5093211;28;20184;-65
2023/06/05 09:07:01;;;;;;;9.10;6.00;;;;;;;;;;5093866;28;20193;-65
2023/06/05 09:09:27;;;;;;;15.23;5.17;;;;;;;;;;5079044;28;20230;-65
2023/06/05 09:12:02;;;;;;;12.40;5.20;;;;;;;;;;5097591;28;20181;-65
2023/06/05 09:14:30;;;;;;;14.83;6.50;;;;;;;;;;5097508;28;20643;-65
2023/06/05 09:16:56;;;;;;;8.77;5.80;;;;;;;;;;5097023;28;20678;-65
2023/06/05 09:19:26;;;;;;;14.83;5.77;;;;;;;;;;5096675;28;20201;-65
2023/06/05 09:21:54;;;;;;;5.80;4.43;;;;;;;;;;5097185;28;20193;-66
2023/06/05 09:24:21;;;;;;;9.57;5.70;;;;;;;;;;5097066;28;20201;-65
2023/06/05 09:26:48;;;;;;;12.13;6.23;;;;;;;;;;5096782;28;20294;-66
2023/06/05 09:29:14;;;;;;;13.63;5.90;;;;;;;;;;5099332;22;20229;-69
2023/06/05 09:31:43;;;;;;;12.40;6.80;;;;;;;;;;5096631;28;20177;-69
2023/06/05 09:34:09;;;;;;;20.97;7.50;;;;;;;;;;5096805;28;20185;-69
2023/06/05 09:36:45;;;;;;;16.33;7.23;;;;;;;;;;5096751;28;20177;-69
2023/06/05 09:39:15;;;;;;;16.00;8.00;;;;;;;;;;5078180;28;20207;-69
2023/06/05 09:41:44;;;;;;;24.37;10.93;;;;;;;;;;5078279;28;20234;-69
2023/06/05 09:44:10;;;;;;;18.50;8.77;;;;;;;;;;5096277;28;20223;-69
2023/06/05 09:46:55;;;;;;;10.47;6.80;;;;;;;;;;5096249;28;20188;-69
2023/06/05 09:49:21;;;;;;;11.07;5.83;;;;;;;;;;5096473;28;20249;-69
2023/06/05 09:51:48;;;;;;;10.73;5.53;;;;;;;;;;5096219;28;20181;-69
2023/06/05 09:54:14;;;;;;;10.80;5.30;;;;;;;;;;5096112;28;20256;-69
2023/06/05 09:56:41;;;;;;;7.80;5.10;;;;;;;;;;5096085;28;20173;-70
2023/06/05 09:59:11;;;;;;;11.20;4.37;;;;;;;;;;5077635;28;20212;-69
2023/06/05 10:01:40;;;;;;;7.23;4.40;;;;;;;;;;5095968;28;20235;-69
2023/06/05 10:04:07;;;;;;;8.00;4.77;;;;;;;;;;5095851;28;20180;-69
2023/06/05 10:06:33;;;;;;;14.77;5.57;;;;;;;;;;5095915;28;20180;-69
2023/06/05 10:09:00;;;;;;;10.90;4.30;;;;;;;;;;5095690;28;20288;-69
2023/06/05 10:11:26;;;;;;;13.17;4.10;;;;;;;;;;5077683;28;20183;-70
2023/06/05 10:13:53;;;;;;;8.30;4.07;;;;;;;;;;5077731;28;20185;-70
2023/06/05 10:16:19;;;;;;;7.63;4.23;;;;;;;;;;5095860;28;20179;-69
2023/06/05 10:18:49;;;;;;;9.60;5.10;;;;;;;;;;5076963;28;20678;-69
2023/06/05 10:21:16;;;;;;;5.13;4.13;;;;;;;;;;5095952;28;20180;-69
2023/06/05 10:23:44;;;;;;;11.53;5.00;;;;;;;;;;5095952;28;20183;-69
2023/06/05 10:26:16;;;;;;;7.33;4.80;;;;;;;;;;5095943;28;20173;-69
2023/06/05 10:28:51;;;;;;;9.27;4.77;;;;;;;;;;5095680;28;20267;-70
2023/06/05 10:31:20;;;;;;;8.80;4.47;;;;;;;;;;5096106;28;20175;-69
2023/06/05 10:33:54;;;;;;;12.07;4.17;;;;;;;;;;5076874;28;20192;-69
2023/06/05 10:36:32;;;;;;;8.00;4.37;;;;;;;;;;5077292;28;20173;-69
2023/06/05 10:39:00;;;;;;;5.30;4.23;;;;;;;;;;5095307;28;20204;-69
2023/06/05 10:41:25;;;;;;;5.50;3.60;;;;;;;;;;5077192;28;20177;-69
2023/06/05 10:43:55;;;;;;;4.20;2.67;;;;;;;;;;5076953;28;20188;-70
2023/06/05 10:46:27;;;;;;;4.77;3.33;;;;;;;;;;5076994;28;20177;-70
2023/06/05 10:49:17;;;;;;;7.23;2.73;;;;;;;;;;5076946;28;20261;-68
2023/06/05 10:51:53;;;;;;;5.83;4.20;;;;;;;;;;5095734;28;20230;-69
2023/06/05 10:54:22;;;;;;;7.50;3.40;;;;;;;;;;5095749;28;20152;-69
2023/06/05 10:56:52;;;;;;;6.13;3.80;;;;;;;;;;5077499;28;20181;-69
2023/06/05 10:59:20;;;;;;;12.50;3.87;;;;;;;;;;5076843;28;20300;-69
2023/06/05 11:04:47;;;;;;;5.83;3.87;;;;;;;;;;5094991;28;20233;-69
2023/06/05 11:07:24;;;;;;;7.33;3.33;;;;;;;;;;5076701;28;20185;-69
2023/06/05 11:09:50;;;;;;;;;;;;;;;;;;5095051;28;20027;-70
2023/06/05 11:12:16;;;;;;;6.17;3.37;;;;;;;;;;5076619;28;20277;-69
2023/06/05 11:14:46;;;;;;;4.80;3.60;;;;;;;;;;5095331;28;20181;-69
2023/06/05 11:17:34;;;;;;;6.57;3.53;;;;;;;;;;5076483;28;20180;-69
2023/06/05 11:20:04;;;;;;;6.40;3.63;;;;;;;;;;5076188;28;20209;-69
2023/06/05 11:22:31;;;;;;;9.67;3.47;;;;;;;;;;5076454;28;20166;-69
2023/06/05 11:25:16;;;;;;;9.97;3.13;;;;;;;;;;5076213;28;20181;-69
2023/06/05 11:27:42;;;;;;;9.23;3.30;;;;;;;;;;5094376;28;20176;-70
2023/06/05 11:30:15;;;;;;;4.67;3.23;;;;;;;;;;5094162;28;20177;-69
2023/06/05 11:32:41;;;;;;;8.80;4.00;;;;;;;;;;5094684;28;20192;-70
2023/06/05 11:35:08;;;;;;;4.03;3.50;;;;;;;;;;5094479;28;20169;-69
2023/06/05 11:37:34;;;;;;;7.03;3.73;;;;;;;;;;5094319;28;20177;-70
2023/06/05 11:40:11;;;;;;;6.67;3.63;;;;;;;;;;5094006;28;20723;-69
2023/06/05 11:42:41;;;;;;;8.43;3.70;;;;;;;;;;5094932;28;20265;-69
2023/06/05 11:45:13;;;;;;;7.30;3.70;;;;;;;;;;5076197;28;20181;-70
2023/06/05 11:47:39;;;;;;;4.93;3.90;;;;;;;;;;5094707;28;20631;-70
2023/06/05 11:50:12;;;;;;;6.40;3.73;;;;;;;;;;5094304;28;20212;-69
2023/06/05 11:52:39;;;;;;;6.13;4.03;;;;;;;;;;5075755;28;20313;-69
2023/06/05 11:55:16;;;;;;;4.47;3.77;;;;;;;;;;5075777;28;20184;-69
2023/06/05 11:57:43;;;;;;;6.80;4.03;;;;;;;;;;5093920;28;20699;-69
2023/06/05 12:00:11;;;;;;;5.97;3.60;;;;;;;;;;5094095;28;20678;-69
2023/06/05 12:02:37;;;;;;;6.90;3.80;;;;;;;;;;5075640;28;20184;-69
2023/06/05 12:05:05;;;;;;;6.17;4.20;;;;;;;;;;5093681;28;20177;-69
2023/06/05 12:07:36;;;;;;;6.50;4.10;;;;;;;;;;5075265;28;20198;-70
2023/06/05 12:10:03;;;;;;;4.43;3.77;;;;;;;;;;5093780;28;20215;-69
2023/06/05 12:12:29;;;;;;;12.30;3.77;;;;;;;;;;5075649;28;20659;-69
2023/06/05 12:14:58;;;;;;;7.07;4.77;;;;;;;;;;5093752;28;20268;-70
2023/06/05 12:17:24;;;;;;;4.60;3.60;;;;;;;;;;5093488;28;20188;-69
2023/06/05 12:19:53;;;;;;;8.97;4.30;;;;;;;;;;5093318;28;20255;-69
2023/06/05 12:22:20;;;;;;;12.03;4.10;;;;;;;;;;5075391;28;20227;-69
2023/06/05 12:24:46;;;;;;;6.57;4.17;;;;;;;;;;5075185;28;20558;-69
2023/06/05 12:27:13;;;;;;;4.83;4.30;;;;;;;;;;5075266;28;20205;-69
2023/06/05 12:29:52;;;;;;;12.73;4.07;;;;;;;;;;5074886;28;20217;-70
2023/06/05 12:32:22;;;;;;;4.47;3.90;;;;;;;;;;5093878;28;20165;-70
2023/06/05 12:34:51;;;;;;;4.87;3.80;;;;;;;;;;5075270;28;20181;-70
2023/06/05 12:37:23;;;;;;;5.57;3.97;;;;;;;;;;5094019;28;20307;-70
2023/06/05 12:39:49;;;;;;;4.70;3.70;;;;;;;;;;5093236;28;20209;-70
2023/06/05 12:42:15;;;;;;;13.23;4.10;;;;;;;;;;5098404;28;20183;-70
2023/06/05 12:44:41;;;;;;;6.53;3.80;;;;;;;;;;5081872;28;20221;-70
2023/06/05 12:47:07;;;;;;;6.00;4.00;;;;;;;;;;5100072;28;20179;-70
2023/06/05 12:49:33;;;;;;;4.03;3.63;;;;;;;;;;5082000;28;20613;-70
2023/06/05 12:52:01;;;;;;;6.87;4.00;;;;;;;;;;5100512;28;20177;-70
2023/06/05 12:54:27;;;;;;;6.30;4.00;;;;;;;;;;5100524;28;20183;-70
2023/06/05 12:56:55;;;;;;;5.93;4.30;;;;;;;;;;5083278;28;20180;-70
2023/06/05 12:59:22;;;;;;;4.60;4.00;;;;;;;;;;5100390;28;20685;-70
2023/06/05 13:01:47;;;;;;;4.83;4.07;;;;;;;;;;5100524;28;20177;-70
2023/06/05 13:04:13;;;;;;;6.07;4.30;;;;;;;;;;5100240;28;20226;-70
2023/06/05 13:06:41;;;;;;;4.67;4.13;;;;;;;;;;5081788;28;20177;-70
2023/06/05 13:09:07;;;;;;;7.77;4.23;;;;;;;;;;5099846;28;20192;-70
2023/06/05 13:11:33;;;;;;;4.47;4.07;;;;;;;;;;5081771;28;20211;-70
2023/06/05 13:14:00;;;;;;;6.07;3.70;;;;;;;;;;5099764;28;20176;-70
2023/06/05 13:16:25;;;;;;;5.23;4.13;;;;;;;;;;5099878;28;20184;-71
2023/06/05 13:18:51;;;;;;;3.97;3.60;;;;;;;;;;5099594;28;20217;-70
2023/06/05 13:21:18;;;;;;;6.87;3.63;;;;;;;;;;5081444;28;20208;-70
2023/06/05 13:23:44;;;;;;;10.50;4.00;;;;;;;;;;5099657;28;20680;-70
2023/06/05 13:26:09;;;;;;;6.97;4.50;;;;;;;;;;5099514;28;20661;-70
2023/06/05 13:28:35;;;;;;;6.67;4.37;;;;;;;;;;5081403;28;20208;-70
2023/06/05 13:31:03;;;;;;;18.60;4.80;;;;;;;;;;5099652;28;20180;-70
2023/06/05 13:33:29;;;;;;;5.40;4.67;;;;;;;;;;5081705;28;20177;-70
2023/06/05 13:35:55;;;;;;;6.27;4.33;;;;;;;;;;5100353;28;20173;-70
2023/06/05 13:38:21;;;;;;;5.37;4.80;;;;;;;;;;5099420;28;20193;-69
2023/06/05 13:40:48;;;;;;;15.13;4.93;;;;;;;;;;5081266;28;20271;-69
2023/06/05 13:43:15;;;;;;;6.57;4.83;;;;;;;;;;5099509;28;20169;-68
2023/06/05 13:45:42;;;;;;;6.40;4.10;;;;;;;;;;5081356;28;20173;-68
2023/06/05 13:48:07;;;;;;;6.53;4.55;;;;;;;;;;5080222;28;20413;-68
2023/06/05 13:50:33;;;;;;;4.95;4.45;;;;;;;;;;5080198;28;20748;-68
2023/06/05 13:52:59;;;;;;;7.10;4.45;;;;;;;;;;5095992;28;20382;-68
2023/06/05 13:55:25;;;;;;;5.65;4.40;;;;;;;;;;5076964;28;20374;-68
2023/06/05 13:57:51;;;;;;;7.60;4.30;;;;;;;;;;5094879;28;20937;-68
2023/06/05 14:00:17;;;;;;;7.27;4.27;;;;;;;;;;5076836;28;20768;-69
2023/06/05 14:02:43;;;;;;;5.97;4.50;;;;;;;;;;5095019;28;20366;-69
2023/06/05 14:05:11;;;;;;;;;;;;;;;;;;5078349;28;20266;-69
2023/06/05 14:07:37;;;;;;;4.97;4.43;;;;;;;;;;5078163;28;19992;-69
2023/06/05 14:10:03;;;;;;;28.23;4.50;;;;;;;;;;5096640;28;20230;-69
2023/06/05 14:12:30;;;;;;;6.40;4.60;;;;;;;;;;5078541;28;20176;-69
2023/06/05 14:14:55;;;;;;;6.07;4.80;;;;;;;;;;5097507;28;20174;-70
2023/06/05 14:17:21;;;;;;;9.50;4.70;;;;;;;;;;5078091;28;20537;-68
2023/06/05 14:19:47;;;;;;;6.97;4.47;;;;;;;;;;5095724;28;20246;-68
2023/06/05 14:22:13;;;;;;;14.30;4.67;;;;;;;;;;5077658;28;20596;-68
2023/06/05 14:24:40;;;;;;;5.30;4.70;;;;;;;;;;5095623;28;20635;-68
2023/06/05 14:27:07;;;;;;;7.70;4.80;;;;;;;;;;5077489;28;20638;-68
2023/06/05 14:29:35;;;;;;;6.90;4.50;;;;;;;;;;5095392;28;20299;-68
2023/06/05 14:32:01;;;;;;;5.23;4.30;;;;;;;;;;5095453;28;20635;-68
2023/06/05 14:34:27;;;;;;;12.37;4.53;;;;;;;;;;5095267;28;20244;-69
2023/06/05 14:36:53;;;;;;;7.07;4.20;;;;;;;;;;5077143;28;20290;-69
2023/06/05 14:39:20;;;;;;;4.57;4.17;;;;;;;;;;5095084;28;20290;-69
2023/06/05 14:41:46;;;;;;;5.83;4.50;;;;;;;;;;5095404;28;20214;-69
2023/06/05 14:44:12;;;;;;;7.43;4.30;;;;;;;;;;5077150;28;20174;-69